Terminal Aerodrome Forecast
Issued by NWS

Home | Current Version | Previous Version | Text Only | Print | Product List | Glossary On
Versions: 1 2 3 4 5 6 7 8 9 10 11 12 13 14
179
FTUS44 KEPZ 302340
TAFLRU
TAF
KLRU 302340Z 3100/3124 21010KT P6SM SCT070 BKN100
     FM310200 26010KT P6SM SCT080 SCT120
     FM310600 25007KT P6SM FEW100
     FM311900 23012G22KT P6SM FEW080 FEW130=

USA.gov is the U.S. government's official web portal to all federal, state and local government web resources and services.